createdAt,value
2022-12-19T00:01:55.733Z,63.59
2022-12-19T00:04:22.353Z,63.13
2022-12-19T00:06:51.782Z,63.00
2022-12-19T00:09:20.740Z,62.62
2022-12-19T00:11:47.556Z,62.33
2022-12-19T00:14:14.137Z,61.98
2022-12-19T00:16:40.723Z,61.95
2022-12-19T00:19:07.589Z,61.80
2022-12-19T00:21:35.145Z,61.80
2022-12-19T00:24:03.107Z,61.44
2022-12-19T00:26:32.976Z,61.66
2022-12-19T00:29:00.654Z,61.97
2022-12-19T00:31:31.130Z,62.00
2022-12-19T00:33:57.854Z,61.85
2022-12-19T00:36:28.040Z,62.18
2022-12-19T00:38:57.634Z,62.54
2022-12-19T00:41:25.218Z,62.49
2022-12-19T00:43:55.465Z,62.47
2022-12-19T00:46:23.410Z,62.24
2022-12-19T00:48:50.178Z,62.29
2022-12-19T00:51:20.064Z,62.41
2022-12-19T00:53:50.352Z,62.21
2022-12-19T00:56:23.450Z,62.69
2022-12-19T00:58:50.063Z,62.99
2022-12-19T01:01:27.285Z,63.23
2022-12-19T01:04:26.627Z,63.24
2022-12-19T01:06:42.133Z,63.14
2022-12-19T01:09:09.816Z,62.69
2022-12-19T01:11:55.092Z,62.80
2022-12-19T01:14:23.180Z,63.46
2022-12-19T01:16:54.714Z,63.03
2022-12-19T01:19:21.337Z,63.18
2022-12-19T01:21:47.892Z,62.79
2022-12-19T01:24:18.937Z,62.92
2022-12-19T01:26:51.493Z,63.00
2022-12-19T01:29:18.018Z,62.72
2022-12-19T01:31:44.723Z,62.65
2022-12-19T01:34:11.380Z,62.53
2022-12-19T01:36:39.715Z,62.38
2022-12-19T01:39:07.267Z,62.77
2022-12-19T01:41:33.860Z,62.41
2022-12-19T01:44:07.274Z,62.52
2022-12-19T01:46:41.655Z,62.01
2022-12-19T01:49:11.476Z,61.97
2022-12-19T01:51:41.427Z,62.13
2022-12-19T01:54:08.802Z,61.98
2022-12-19T01:56:39.151Z,61.40
2022-12-19T01:59:07.272Z,61.73
2022-12-19T02:01:47.055Z,61.59
2022-12-19T02:04:24.314Z,61.87
2022-12-19T02:06:51.556Z,61.77
2022-12-19T02:09:20.343Z,61.86
2022-12-19T02:11:51.380Z,61.42
2022-12-19T02:14:17.963Z,61.40
2022-12-19T02:16:47.795Z,62.44
2022-12-19T02:19:17.760Z,62.97
2022-12-19T02:21:55.317Z,63.02
2022-12-19T02:24:33.376Z,63.64
2022-12-19T02:27:05.020Z,63.32
2022-12-19T02:29:50.394Z,63.40
2022-12-19T02:32:18.680Z,64.29
2022-12-19T02:35:01.382Z,64.06
2022-12-19T02:37:32.477Z,64.83
2022-12-19T02:40:07.144Z,64.95
2022-12-19T02:42:37.574Z,65.00
2022-12-19T02:45:04.703Z,65.03
2022-12-19T02:47:31.648Z,65.52
2022-12-19T02:49:59.779Z,65.16
2022-12-19T02:52:26.868Z,65.21
2022-12-19T02:54:57.892Z,65.04
2022-12-19T02:57:30.025Z,64.93
2022-12-19T03:00:09.936Z,65.18
2022-12-19T03:02:45.865Z,64.43
2022-12-19T03:05:20.511Z,64.42
2022-12-19T03:07:52.562Z,64.00
2022-12-19T03:10:29.495Z,63.63
2022-12-19T03:13:10.647Z,63.30
2022-12-19T03:15:38.588Z,63.20
2022-12-19T03:18:05.680Z,63.50
2022-12-19T03:20:51.221Z,63.14
2022-12-19T03:23:17.829Z,62.98
2022-12-19T03:25:46.187Z,63.13
2022-12-19T03:28:16.060Z,62.97
2022-12-19T03:30:45.155Z,62.62
2022-12-19T03:33:11.869Z,62.19
2022-12-19T03:35:41.172Z,62.25
2022-12-19T03:38:07.657Z,62.18
2022-12-19T03:40:37.272Z,62.27
2022-12-19T03:43:10.773Z,61.71
2022-12-19T03:45:47.363Z,62.25
2022-12-19T03:48:19.197Z,61.96
2022-12-19T03:51:04.066Z,61.95
2022-12-19T03:53:35.220Z,61.94
2022-12-19T03:56:06.637Z,61.64
2022-12-19T03:58:36.734Z,61.56
2022-12-19T04:01:03.816Z,61.68
2022-12-19T04:03:33.203Z,61.23
2022-12-19T04:06:02.170Z,61.45
2022-12-19T04:08:29.191Z,61.68
2022-12-19T04:10:57.837Z,61.55
2022-12-19T04:13:28.317Z,61.42
2022-12-19T04:16:07.441Z,61.86
2022-12-19T04:18:34.084Z,61.25
2022-12-19T04:21:22.834Z,60.94
2022-12-19T04:23:53.471Z,61.23
2022-12-19T04:26:22.509Z,61.34
2022-12-19T04:28:53.296Z,60.95
2022-12-19T04:31:19.948Z,60.87
2022-12-19T04:33:49.070Z,60.94
2022-12-19T04:36:15.731Z,61.21
2022-12-19T04:38:46.830Z,61.49
2022-12-19T04:41:13.589Z,61.97
2022-12-19T04:43:40.179Z,61.76
2022-12-19T04:46:08.799Z,61.92
2022-12-19T04:48:38.660Z,62.16
2022-12-19T04:51:05.532Z,62.02
2022-12-19T04:53:32.323Z,61.65
2022-12-19T04:56:12.383Z,61.55
2022-12-19T04:58:51.297Z,61.94
2022-12-19T05:01:18.625Z,61.91
2022-12-19T05:03:52.670Z,62.29
2022-12-19T05:06:21.404Z,62.12
2022-12-19T05:08:50.365Z,62.40
2022-12-19T05:11:23.600Z,62.48
2022-12-19T05:13:52.778Z,62.54
2022-12-19T05:16:21.771Z,62.23
2022-12-19T05:27:30.809Z,62.20
2022-12-19T05:33:47.954Z,61.79
2022-12-19T05:36:15.330Z,61.96
2022-12-19T05:38:46.824Z,61.86
2022-12-19T05:41:15.115Z,61.75
2022-12-19T05:43:42.049Z,61.63
2022-12-19T05:46:08.854Z,61.65
2022-12-19T05:48:37.868Z,61.79
2022-12-19T05:51:06.912Z,61.91
2022-12-19T05:53:39.445Z,61.64
2022-12-19T05:56:15.583Z,61.76
2022-12-19T05:58:42.310Z,61.74
2022-12-19T06:01:10.240Z,61.66
2022-12-19T06:03:39.011Z,61.30
2022-12-19T06:06:06.730Z,61.57
2022-12-19T06:08:33.766Z,61.64
2022-12-19T06:11:03.274Z,61.53
2022-12-19T06:13:32.267Z,61.65
2022-12-19T06:16:06.262Z,61.36
2022-12-19T06:18:33.071Z,61.37
2022-12-19T06:21:03.735Z,61.77
2022-12-19T06:23:33.979Z,61.62
2022-12-19T06:26:03.900Z,61.67
2022-12-19T06:28:33.259Z,61.71
2022-12-19T06:31:00.576Z,61.53
2022-12-19T06:33:27.757Z,61.75
2022-12-19T06:36:01.026Z,61.63
2022-12-19T06:38:28.383Z,61.74
2022-12-19T06:41:13.620Z,61.43
2022-12-19T06:43:40.491Z,61.49
2022-12-19T06:46:11.965Z,61.48
2022-12-19T06:48:38.709Z,61.53
2022-12-19T06:51:05.661Z,61.52
2022-12-19T06:53:32.294Z,62.48
2022-12-19T06:55:59.072Z,62.52
2022-12-19T06:58:25.956Z,62.56
2022-12-19T07:00:52.890Z,62.65
2022-12-19T07:03:20.937Z,62.71
2022-12-19T07:05:47.512Z,62.49
2022-12-19T07:08:14.196Z,62.62
2022-12-19T07:10:41.038Z,62.57
2022-12-19T07:13:10.184Z,62.79
2022-12-19T07:15:36.812Z,62.65
2022-12-19T07:18:04.267Z,62.78
2022-12-19T07:20:30.884Z,62.75
2022-12-19T07:22:59.928Z,62.69
2022-12-19T07:25:26.505Z,62.89
2022-12-19T07:27:53.605Z,62.48
2022-12-19T07:30:20.251Z,62.63
2022-12-19T07:32:46.800Z,62.76
2022-12-19T07:35:16.631Z,61.77
2022-12-19T07:37:43.231Z,61.49
2022-12-19T07:40:12.164Z,60.86
2022-12-19T07:42:43.685Z,60.41
2022-12-19T07:45:10.687Z,60.83
2022-12-19T07:47:37.464Z,59.70
2022-12-19T07:50:04.300Z,59.59
2022-12-19T07:52:30.894Z,59.82
2022-12-19T07:55:02.291Z,59.23
2022-12-19T07:57:33.077Z,59.57
2022-12-19T07:59:59.622Z,59.66
2022-12-19T08:02:26.432Z,59.62
2022-12-19T08:04:53.427Z,59.21
2022-12-19T08:07:22.846Z,58.79
2022-12-19T08:09:49.443Z,58.29
2022-12-19T08:12:16.998Z,57.78
2022-12-19T08:14:43.642Z,57.75
2022-12-19T08:17:25.584Z,57.67
2022-12-19T08:19:52.199Z,57.16
2022-12-19T08:22:18.829Z,56.56
2022-12-19T08:24:45.550Z,56.01
2022-12-19T08:27:15.700Z,55.44
2022-12-19T08:29:44.681Z,55.84
2022-12-19T08:32:15.615Z,55.54
2022-12-19T08:34:45.340Z,54.47
2022-12-19T08:37:11.960Z,54.90
2022-12-19T08:39:38.535Z,53.66
2022-12-19T08:42:05.186Z,54.09
2022-12-19T08:44:36.856Z,54.36
2022-12-19T08:47:03.456Z,54.52
2022-12-19T08:49:30.110Z,54.07
2022-12-19T08:51:56.703Z,54.56
2022-12-19T08:54:23.287Z,53.99
2022-12-19T08:56:49.891Z,53.23
2022-12-19T08:59:26.420Z,54.46
2022-12-19T09:02:02.614Z,53.91
2022-12-19T09:05:58.010Z,54.57
2022-12-19T09:07:19.492Z,54.69
2022-12-19T09:09:46.146Z,54.39
2022-12-19T09:12:13.277Z,54.37
2022-12-19T09:14:39.875Z,54.24
2022-12-19T09:17:06.628Z,53.99
2022-12-19T09:19:33.273Z,53.46
2022-12-19T09:22:00.031Z,53.72
2022-12-19T09:24:28.980Z,52.89
2022-12-19T09:26:55.501Z,51.85
2022-12-19T09:29:22.508Z,51.92
2022-12-19T09:31:53.872Z,52.00
2022-12-19T09:34:36.252Z,51.91
2022-12-19T09:37:05.509Z,51.04
2022-12-19T09:39:33.215Z,50.62
2022-12-19T09:42:09.077Z,50.20
2022-12-19T09:44:41.595Z,50.15
2022-12-19T09:47:13.366Z,50.23
2022-12-19T09:49:42.028Z,50.00
2022-12-19T09:52:32.875Z,49.52
2022-12-19T09:55:06.693Z,50.69
2022-12-19T09:57:36.694Z,50.79
2022-12-19T10:00:07.552Z,50.54
2022-12-19T10:02:43.657Z,50.25
2022-12-19T10:05:36.570Z,50.20
2022-12-19T10:08:09.361Z,50.40
2022-12-19T10:12:38.217Z,50.50
2022-12-19T10:13:30.358Z,50.02
2022-12-19T10:16:16.970Z,50.24
2022-12-19T10:19:03.620Z,50.15
2022-12-19T10:22:16.444Z,49.68
2022-12-19T10:24:44.064Z,49.86
2022-12-19T10:27:29.582Z,49.68
2022-12-19T10:29:59.238Z,49.84
2022-12-19T10:32:48.406Z,49.33
2022-12-19T10:35:16.406Z,48.55
2022-12-19T10:37:49.781Z,47.82
2022-12-19T10:40:28.874Z,47.47
2022-12-19T10:43:10.886Z,47.52
2022-12-19T10:45:47.083Z,46.34
2022-12-19T10:48:18.557Z,46.56
2022-12-19T10:50:47.410Z,46.15
2022-12-19T10:53:17.374Z,46.04
2022-12-19T10:55:44.118Z,45.53
2022-12-19T10:58:27.087Z,45.31
2022-12-19T11:00:58.735Z,45.38
2022-12-19T11:03:25.549Z,46.02
2022-12-19T11:05:58.169Z,44.94
2022-12-19T11:08:25.253Z,46.36
2022-12-19T11:11:54.967Z,45.73
2022-12-19T11:18:22.794Z,45.64
2022-12-19T11:22:28.673Z,46.17
2022-12-19T11:29:15.052Z,46.17
2022-12-19T11:29:32.817Z,46.66
2022-12-19T11:30:36.187Z,46.82
2022-12-19T11:30:59.589Z,47.31
2022-12-19T11:31:54.628Z,47.13
2022-12-19T11:33:49.889Z,46.89
2022-12-19T11:36:27.498Z,46.50
2022-12-19T11:38:54.267Z,46.15
2022-12-19T11:41:39.891Z,45.03
2022-12-19T11:44:27.750Z,45.09
2022-12-19T11:47:04.208Z,45.22
2022-12-19T11:49:33.379Z,45.11
2022-12-19T11:53:02.370Z,44.39
2022-12-19T11:55:21.675Z,44.91
2022-12-19T11:57:50.742Z,45.10
2022-12-19T12:00:23.305Z,43.90
2022-12-19T12:03:22.447Z,43.78
2022-12-19T12:05:50.072Z,44.17
2022-12-19T12:09:27.054Z,43.28
2022-12-19T12:18:22.966Z,43.99
2022-12-19T12:27:42.068Z,43.60
2022-12-19T12:31:05.599Z,43.70
2022-12-19T12:31:16.332Z,43.71
2022-12-19T12:31:20.324Z,42.53
2022-12-19T12:31:38.590Z,42.61
2022-12-19T12:31:50.063Z,42.56
2022-12-19T12:35:46.741Z,42.13
2022-12-19T12:38:24.021Z,43.69
2022-12-19T12:40:53.011Z,44.14
2022-12-19T12:43:22.720Z,44.32
2022-12-19T12:45:52.993Z,43.80
2022-12-19T12:48:22.713Z,43.70
2022-12-19T12:50:55.362Z,44.06
2022-12-19T12:53:28.812Z,43.92
2022-12-19T12:56:01.201Z,44.19
2022-12-19T12:58:53.952Z,44.95
2022-12-19T13:01:30.426Z,45.40
2022-12-19T13:03:57.059Z,45.41
2022-12-19T13:06:27.934Z,45.98
2022-12-19T13:08:57.121Z,46.17
2022-12-19T13:11:45.464Z,46.45
2022-12-19T13:14:30.726Z,46.89
2022-12-19T13:16:57.408Z,47.43
2022-12-19T13:19:28.750Z,47.34
2022-12-19T13:22:04.851Z,47.68
2022-12-19T13:24:41.399Z,47.84
2022-12-19T13:27:20.171Z,48.20
2022-12-19T13:30:07.448Z,48.33
2022-12-19T13:32:53.988Z,48.42
2022-12-19T13:36:44.700Z,48.08
2022-12-19T13:39:50.859Z,48.00
2022-12-19T13:41:49.365Z,48.30
2022-12-19T13:44:20.099Z,48.35
2022-12-19T13:46:46.778Z,49.03
2022-12-19T13:49:24.170Z,49.43
2022-12-19T13:51:54.692Z,49.76
2022-12-19T13:54:28.444Z,49.59
2022-12-19T13:57:09.541Z,49.69
2022-12-19T13:59:37.291Z,50.01
2022-12-19T14:02:15.192Z,49.90
2022-12-19T14:04:42.051Z,49.89
2022-12-19T14:07:39.568Z,50.48
2022-12-19T14:11:41.539Z,50.67
2022-12-19T14:13:55.345Z,50.53
2022-12-19T14:16:00.564Z,50.85
2022-12-19T14:18:42.526Z,50.69
2022-12-19T14:22:11.469Z,51.18
2022-12-19T14:24:17.743Z,51.40
2022-12-19T14:28:19.656Z,51.73
2022-12-19T14:30:29.163Z,51.91
2022-12-19T14:33:22.141Z,51.93
2022-12-19T14:36:05.087Z,52.11
2022-12-19T14:39:21.193Z,52.46
2022-12-19T14:41:08.397Z,52.72
2022-12-19T14:43:58.538Z,52.82
2022-12-19T14:54:02.602Z,53.13
2022-12-19T14:54:06.895Z,53.33
2022-12-19T14:54:37.575Z,53.46
2022-12-19T14:56:09.290Z,53.31
2022-12-19T14:58:53.699Z,53.55
2022-12-19T15:01:09.042Z,53.44
2022-12-19T15:03:42.245Z,53.78
2022-12-19T15:07:08.389Z,53.84
2022-12-19T15:10:59.602Z,54.08
2022-12-19T15:13:47.102Z,54.40
2022-12-19T15:15:02.585Z,54.63
2022-12-19T15:17:32.009Z,54.63
2022-12-19T15:19:58.659Z,54.59
2022-12-19T15:22:25.267Z,54.63
2022-12-19T15:24:51.920Z,54.51
2022-12-19T15:27:20.700Z,54.54
2022-12-19T15:29:47.297Z,54.69
2022-12-19T15:32:19.336Z,54.89
2022-12-19T15:34:51.872Z,55.04
2022-12-19T15:37:18.496Z,54.89
2022-12-19T15:39:45.200Z,54.92
2022-12-19T15:42:25.174Z,55.06
2022-12-19T15:44:52.276Z,55.09
2022-12-19T15:47:21.799Z,55.14
2022-12-19T15:49:48.363Z,55.08
2022-12-19T15:52:18.859Z,55.28
2022-12-19T15:54:50.065Z,55.72
2022-12-19T15:57:34.443Z,55.59
2022-12-19T16:00:02.429Z,55.82
2022-12-19T16:03:12.881Z,55.96
2022-12-19T16:05:23.704Z,56.07
2022-12-19T16:07:52.828Z,55.94
2022-12-19T16:10:21.685Z,55.97
2022-12-19T16:12:49.663Z,56.30
2022-12-19T16:15:26.752Z,56.19
2022-12-19T16:17:55.994Z,56.20
2022-12-19T16:20:23.950Z,56.30
2022-12-19T16:22:50.925Z,56.07
2022-12-19T16:25:17.666Z,56.00
2022-12-19T16:27:47.244Z,56.09
2022-12-19T16:30:21.013Z,55.99
2022-12-19T16:32:51.243Z,56.13
2022-12-19T16:35:34.227Z,55.99
2022-12-19T16:38:13.170Z,56.01
2022-12-19T16:40:39.936Z,55.72
2022-12-19T16:43:27.004Z,55.83
2022-12-19T16:46:00.745Z,55.74
2022-12-19T16:48:35.783Z,55.67
2022-12-19T16:51:07.780Z,55.46
2022-12-19T16:53:36.908Z,55.62
2022-12-19T16:56:06.032Z,55.39
2022-12-19T16:58:36.774Z,55.26
2022-12-19T17:01:06.391Z,55.48
2022-12-19T17:03:33.628Z,55.45
2022-12-19T17:06:02.873Z,55.53
2022-12-19T17:08:29.617Z,55.49
2022-12-19T17:10:56.294Z,55.25
2022-12-19T17:13:25.240Z,55.18
2022-12-19T17:15:56.721Z,55.08
2022-12-19T17:18:23.848Z,55.36
2022-12-19T17:20:50.826Z,55.15
2022-12-19T17:23:20.821Z,55.18
2022-12-19T17:25:47.510Z,55.02
2022-12-19T17:28:15.647Z,55.19
2022-12-19T17:30:48.064Z,54.94
2022-12-19T17:33:15.546Z,54.88
2022-12-19T17:35:44.743Z,55.07
2022-12-19T17:38:15.880Z,55.14
2022-12-19T17:40:42.920Z,55.08
2022-12-19T17:43:12.484Z,55.04
2022-12-19T17:45:39.129Z,55.01
2022-12-19T17:48:09.067Z,54.87
2022-12-19T17:50:37.897Z,55.02
2022-12-19T17:53:04.676Z,54.63
2022-12-19T17:55:31.603Z,54.85
2022-12-19T17:57:58.514Z,54.95
2022-12-19T18:00:30.392Z,54.89
2022-12-19T18:02:57.790Z,54.81
2022-12-19T18:05:32.278Z,54.85
2022-12-19T18:07:59.085Z,54.95
2022-12-19T18:10:26.886Z,54.54
2022-12-19T18:12:53.790Z,54.70
2022-12-19T18:15:23.863Z,54.50
2022-12-19T18:18:02.916Z,54.40
2022-12-19T18:20:32.929Z,54.26
2022-12-19T18:23:00.154Z,54.36
2022-12-19T18:25:30.968Z,54.27
2022-12-19T18:28:00.107Z,54.18
2022-12-19T18:30:29.597Z,54.32
2022-12-19T18:32:59.441Z,54.42
2022-12-19T18:35:38.459Z,54.18
2022-12-19T18:38:08.451Z,54.49
2022-12-19T18:40:40.936Z,54.56
2022-12-19T18:43:08.933Z,54.65
2022-12-19T18:45:40.086Z,54.65
2022-12-19T18:48:08.042Z,54.73
2022-12-19T18:50:34.843Z,54.98
2022-12-19T18:53:01.505Z,54.75
2022-12-19T18:55:33.053Z,54.74
2022-12-19T18:58:02.706Z,54.86
2022-12-19T19:00:29.877Z,54.75
2022-12-19T19:03:00.629Z,54.91
2022-12-19T19:05:35.260Z,54.72
2022-12-19T19:08:06.160Z,54.68
2022-12-19T19:10:33.109Z,54.81
2022-12-19T19:13:10.212Z,54.61
2022-12-19T19:15:40.290Z,54.83
2022-12-19T19:18:10.251Z,54.74
2022-12-19T19:20:37.691Z,54.96
2022-12-19T19:23:04.924Z,55.28
2022-12-19T19:25:32.187Z,54.98
2022-12-19T19:27:58.775Z,55.10
2022-12-19T19:30:27.881Z,55.16
2022-12-19T19:33:01.119Z,55.02
2022-12-19T19:35:31.144Z,54.81
2022-12-19T19:37:59.459Z,55.28
2022-12-19T19:40:28.857Z,55.00
2022-12-19T19:42:58.749Z,55.03
2022-12-19T19:45:26.865Z,54.99
2022-12-19T19:47:53.911Z,55.23
2022-12-19T19:50:25.029Z,55.31
2022-12-19T19:52:54.257Z,55.37
2022-12-19T19:55:23.704Z,55.37
2022-12-19T19:57:51.086Z,55.58
2022-12-19T20:00:18.046Z,55.86
2022-12-19T20:02:47.021Z,55.73
2022-12-19T20:05:14.495Z,56.00
2022-12-19T20:07:41.297Z,55.62
2022-12-19T20:10:12.102Z,55.71
2022-12-19T20:12:38.917Z,55.75
2022-12-19T20:15:06.001Z,55.61
2022-12-19T20:17:35.202Z,55.66
2022-12-19T20:20:01.995Z,55.82
2022-12-19T20:22:33.423Z,55.74
2022-12-19T20:25:00.103Z,55.69
2022-12-19T20:27:29.124Z,55.58
2022-12-19T20:29:56.759Z,55.43
2022-12-19T20:32:26.036Z,55.77
2022-12-19T20:34:52.726Z,55.94
2022-12-19T20:37:19.297Z,56.17
2022-12-19T20:39:45.949Z,55.87
2022-12-19T20:42:12.528Z,55.96
2022-12-19T20:44:39.165Z,56.15
2022-12-19T20:47:06.160Z,56.21
2022-12-19T20:49:32.821Z,55.96
2022-12-19T20:51:59.521Z,56.29
2022-12-19T20:54:26.090Z,56.27
2022-12-19T20:56:52.772Z,56.31
2022-12-19T20:59:19.546Z,56.16
2022-12-19T21:01:48.887Z,55.96
2022-12-19T21:04:18.919Z,56.02
2022-12-19T21:06:45.612Z,56.24
2022-12-19T21:09:12.520Z,56.53
2022-12-19T21:11:41.426Z,56.29
2022-12-19T21:14:09.050Z,56.14
2022-12-19T21:16:38.303Z,56.37
2022-12-19T21:19:07.087Z,55.96
2022-12-19T21:21:33.805Z,56.08
2022-12-19T21:24:00.766Z,56.07
2022-12-19T21:26:30.494Z,55.99
2022-12-19T21:28:58.163Z,56.23
2022-12-19T21:31:25.533Z,55.68
2022-12-19T21:33:59.134Z,55.83
2022-12-19T21:36:29.075Z,56.19
2022-12-19T21:38:56.778Z,56.33
2022-12-19T21:41:26.057Z,56.35
2022-12-19T21:43:53.780Z,56.41
2022-12-19T21:46:21.323Z,56.33
2022-12-19T21:48:56.107Z,56.37
2022-12-19T21:51:26.761Z,56.26
2022-12-19T21:53:54.308Z,56.33
2022-12-19T21:56:49.565Z,56.17
2022-12-19T21:59:16.742Z,56.22
2022-12-19T22:01:43.653Z,56.12
2022-12-19T22:04:11.453Z,56.23
2022-12-19T22:06:40.487Z,55.79
2022-12-19T22:09:08.036Z,56.24
2022-12-19T22:11:37.655Z,56.07
2022-12-19T22:14:05.249Z,56.14
2022-12-19T22:16:32.188Z,56.34
2022-12-19T22:18:59.328Z,56.30
2022-12-19T22:21:26.009Z,56.53
2022-12-19T22:23:54.942Z,56.60
2022-12-19T22:26:25.519Z,56.36
2022-12-19T22:28:53.295Z,56.75
2022-12-19T22:31:20.255Z,56.81
2022-12-19T22:33:47.298Z,57.14
2022-12-19T22:36:15.506Z,56.92
2022-12-19T22:38:43.638Z,56.84
2022-12-19T22:41:10.254Z,57.08
2022-12-19T22:43:39.537Z,57.19
2022-12-19T22:46:10.146Z,56.95
2022-12-19T22:48:39.465Z,57.07
2022-12-19T22:51:06.498Z,57.28
2022-12-19T22:53:34.256Z,57.27
2022-12-19T22:56:06.413Z,57.13
2022-12-19T22:58:36.859Z,57.17
2022-12-19T23:01:14.373Z,57.34
2022-12-19T23:03:41.364Z,57.19
2022-12-19T23:06:08.134Z,57.05
2022-12-19T23:08:39.678Z,57.33
2022-12-19T23:11:12.001Z,57.22
2022-12-19T23:13:39.908Z,57.11
2022-12-19T23:16:09.191Z,57.06
2022-12-19T23:18:36.114Z,57.06
2022-12-19T23:21:19.129Z,57.42
2022-12-19T23:23:50.142Z,57.58
2022-12-19T23:26:21.637Z,57.65
2022-12-19T23:29:07.275Z,57.24
2022-12-19T23:31:34.350Z,57.50
2022-12-19T23:34:04.113Z,57.81
2022-12-19T23:39:20.874Z,57.73
2022-12-19T23:41:50.312Z,57.59
2022-12-19T23:44:20.799Z,57.59
2022-12-19T23:46:47.430Z,57.64
2022-12-19T23:49:16.679Z,57.77
2022-12-19T23:51:44.566Z,57.85
2022-12-19T23:54:11.484Z,57.78
2022-12-19T23:56:40.424Z,57.86
2022-12-19T23:59:14.434Z,57.84
